sensor_id;sensor_type;location;lat;lon;timestamp;P1;durP1;ratioP1;P2;durP2;ratioP2
49223;SDS011;35050;51.316;5.994;2023-09-18T00:00:44;5.57;;;3.90;;
49223;SDS011;35050;51.316;5.994;2023-09-18T00:03:11;4.65;;;3.70;;
49223;SDS011;35050;51.316;5.994;2023-09-18T00:05:37;4.78;;;3.97;;
49223;SDS011;35050;51.316;5.994;2023-09-18T00:08:02;4.90;;;3.67;;
49223;SDS011;35050;51.316;5.994;2023-09-18T00:10:29;6.10;;;3.65;;
49223;SDS011;35050;51.316;5.994;2023-09-18T00:12:55;8.25;;;4.63;;
49223;SDS011;35050;51.316;5.994;2023-09-18T00:15:21;6.43;;;3.47;;
49223;SDS011;35050;51.316;5.994;2023-09-18T00:17:47;6.88;;;3.72;;
49223;SDS011;35050;51.316;5.994;2023-09-18T00:20:13;4.20;;;3.35;;
49223;SDS011;35050;51.316;5.994;2023-09-18T00:22:39;5.72;;;3.92;;
49223;SDS011;35050;51.316;5.994;2023-09-18T00:25:04;5.88;;;3.80;;
49223;SDS011;35050;51.316;5.994;2023-09-18T00:27:30;5.10;;;3.90;;
49223;SDS011;35050;51.316;5.994;2023-09-18T00:29:57;9.32;;;4.32;;
49223;SDS011;35050;51.316;5.994;2023-09-18T00:32:23;5.03;;;3.70;;
49223;SDS011;35050;51.316;5.994;2023-09-18T00:34:49;5.30;;;3.67;;
49223;SDS011;35050;51.316;5.994;2023-09-18T00:37:14;4.70;;;3.63;;
49223;SDS011;35050;51.316;5.994;2023-09-18T00:39:41;4.13;;;3.55;;
49223;SDS011;35050;51.316;5.994;2023-09-18T00:42:07;7.80;;;3.97;;
49223;SDS011;35050;51.316;5.994;2023-09-18T00:44:38;4.85;;;3.75;;
49223;SDS011;35050;51.316;5.994;2023-09-18T00:47:03;6.30;;;4.40;;
49223;SDS011;35050;51.316;5.994;2023-09-18T00:49:29;4.85;;;3.67;;
49223;SDS011;35050;51.316;5.994;2023-09-18T00:51:56;4.07;;;3.25;;
49223;SDS011;35050;51.316;5.994;2023-09-18T00:54:21;5.28;;;3.45;;
49223;SDS011;35050;51.316;5.994;2023-09-18T00:56:47;5.25;;;3.85;;
49223;SDS011;35050;51.316;5.994;2023-09-18T00:59:14;8.18;;;4.40;;
49223;SDS011;35050;51.316;5.994;2023-09-18T01:01:40;7.65;;;3.33;;
49223;SDS011;35050;51.316;5.994;2023-09-18T01:04:07;9.95;;;3.95;;
49223;SDS011;35050;51.316;5.994;2023-09-18T01:06:33;8.95;;;3.42;;
49223;SDS011;35050;51.316;5.994;2023-09-18T01:08:58;6.25;;;3.67;;
49223;SDS011;35050;51.316;5.994;2023-09-18T01:11:36;7.85;;;3.20;;
49223;SDS011;35050;51.316;5.994;2023-09-18T01:17:02;7.97;;;3.65;;
49223;SDS011;35050;51.316;5.994;2023-09-18T01:19:46;6.50;;;3.80;;
49223;SDS011;35050;51.316;5.994;2023-09-18T01:22:13;5.85;;;3.47;;
49223;SDS011;35050;51.316;5.994;2023-09-18T01:24:41;4.88;;;3.40;;
49223;SDS011;35050;51.316;5.994;2023-09-18T01:27:08;5.57;;;3.40;;
49223;SDS011;35050;51.316;5.994;2023-09-18T01:29:42;4.15;;;3.38;;
49223;SDS011;35050;51.316;5.994;2023-09-18T01:32:08;6.35;;;3.30;;
49223;SDS011;35050;51.316;5.994;2023-09-18T01:34:36;5.20;;;3.45;;
49223;SDS011;35050;51.316;5.994;2023-09-18T01:39:34;4.43;;;2.97;;
49223;SDS011;35050;51.316;5.994;2023-09-18T01:42:01;8.02;;;3.25;;
49223;SDS011;35050;51.316;5.994;2023-09-18T01:44:30;5.15;;;3.03;;
49223;SDS011;35050;51.316;5.994;2023-09-18T01:46:58;4.78;;;3.00;;
49223;SDS011;35050;51.316;5.994;2023-09-18T01:49:28;7.18;;;3.50;;
49223;SDS011;35050;51.316;5.994;2023-09-18T01:51:54;6.78;;;4.00;;
49223;SDS011;35050;51.316;5.994;2023-09-18T01:54:20;5.28;;;3.15;;
49223;SDS011;35050;51.316;5.994;2023-09-18T01:56:46;6.35;;;3.45;;
49223;SDS011;35050;51.316;5.994;2023-09-18T01:59:12;5.63;;;2.97;;
49223;SDS011;35050;51.316;5.994;2023-09-18T02:01:37;6.03;;;3.60;;
49223;SDS011;35050;51.316;5.994;2023-09-18T02:04:04;4.03;;;3.17;;
49223;SDS011;35050;51.316;5.994;2023-09-18T02:06:30;4.82;;;3.10;;
49223;SDS011;35050;51.316;5.994;2023-09-18T02:08:55;7.78;;;3.80;;
49223;SDS011;35050;51.316;5.994;2023-09-18T02:11:21;7.45;;;3.47;;
49223;SDS011;35050;51.316;5.994;2023-09-18T02:13:47;5.68;;;3.13;;
49223;SDS011;35050;51.316;5.994;2023-09-18T02:16:12;5.45;;;3.10;;
49223;SDS011;35050;51.316;5.994;2023-09-18T02:18:38;6.55;;;3.50;;
49223;SDS011;35050;51.316;5.994;2023-09-18T02:21:03;6.57;;;3.42;;
49223;SDS011;35050;51.316;5.994;2023-09-18T02:23:29;4.78;;;2.92;;
49223;SDS011;35050;51.316;5.994;2023-09-18T02:25:55;3.83;;;3.17;;
49223;SDS011;35050;51.316;5.994;2023-09-18T02:28:22;6.15;;;3.40;;
49223;SDS011;35050;51.316;5.994;2023-09-18T02:30:47;5.95;;;3.13;;
49223;SDS011;35050;51.316;5.994;2023-09-18T02:33:13;6.60;;;3.30;;
49223;SDS011;35050;51.316;5.994;2023-09-18T02:35:40;8.35;;;3.63;;
49223;SDS011;35050;51.316;5.994;2023-09-18T02:38:06;6.85;;;3.75;;
49223;SDS011;35050;51.316;5.994;2023-09-18T02:40:31;7.25;;;3.67;;
49223;SDS011;35050;51.316;5.994;2023-09-18T02:42:57;4.93;;;3.20;;
49223;SDS011;35050;51.316;5.994;2023-09-18T02:45:22;3.90;;;2.83;;
49223;SDS011;35050;51.316;5.994;2023-09-18T02:47:48;7.38;;;3.50;;
49223;SDS011;35050;51.316;5.994;2023-09-18T02:50:13;6.43;;;3.58;;
49223;SDS011;35050;51.316;5.994;2023-09-18T02:52:39;6.22;;;3.90;;
49223;SDS011;35050;51.316;5.994;2023-09-18T02:55:05;7.03;;;4.10;;
49223;SDS011;35050;51.316;5.994;2023-09-18T02:57:30;6.78;;;3.53;;
49223;SDS011;35050;51.316;5.994;2023-09-18T02:59:56;7.82;;;3.83;;
49223;SDS011;35050;51.316;5.994;2023-09-18T03:02:22;9.00;;;3.25;;
49223;SDS011;35050;51.316;5.994;2023-09-18T03:04:47;4.70;;;3.40;;
49223;SDS011;35050;51.316;5.994;2023-09-18T03:07:13;3.58;;;2.80;;
49223;SDS011;35050;51.316;5.994;2023-09-18T03:09:38;6.38;;;3.17;;
49223;SDS011;35050;51.316;5.994;2023-09-18T03:12:04;4.88;;;3.55;;
49223;SDS011;35050;51.316;5.994;2023-09-18T03:14:30;6.78;;;3.40;;
49223;SDS011;35050;51.316;5.994;2023-09-18T03:16:56;7.28;;;4.07;;
49223;SDS011;35050;51.316;5.994;2023-09-18T03:19:21;10.05;;;3.22;;
49223;SDS011;35050;51.316;5.994;2023-09-18T03:21:49;6.68;;;3.65;;
49223;SDS011;35050;51.316;5.994;2023-09-18T03:24:15;6.25;;;3.15;;
49223;SDS011;35050;51.316;5.994;2023-09-18T03:26:40;7.78;;;3.55;;
49223;SDS011;35050;51.316;5.994;2023-09-18T03:29:06;5.57;;;3.03;;
49223;SDS011;35050;51.316;5.994;2023-09-18T03:31:31;5.25;;;3.10;;
49223;SDS011;35050;51.316;5.994;2023-09-18T03:33:57;6.75;;;3.00;;
49223;SDS011;35050;51.316;5.994;2023-09-18T03:36:22;5.68;;;3.13;;
49223;SDS011;35050;51.316;5.994;2023-09-18T03:38:49;7.45;;;3.33;;
49223;SDS011;35050;51.316;5.994;2023-09-18T03:41:14;8.35;;;3.45;;
49223;SDS011;35050;51.316;5.994;2023-09-18T03:43:40;8.73;;;3.42;;
49223;SDS011;35050;51.316;5.994;2023-09-18T03:46:06;4.72;;;3.00;;
49223;SDS011;35050;51.316;5.994;2023-09-18T03:48:32;5.43;;;3.58;;
49223;SDS011;35050;51.316;5.994;2023-09-18T03:51:05;8.57;;;3.40;;
49223;SDS011;35050;51.316;5.994;2023-09-18T03:53:34;5.28;;;2.90;;
49223;SDS011;35050;51.316;5.994;2023-09-18T03:56:00;5.35;;;3.15;;
49223;SDS011;35050;51.316;5.994;2023-09-18T03:58:26;5.88;;;3.10;;
49223;SDS011;35050;51.316;5.994;2023-09-18T04:00:52;6.25;;;3.40;;
49223;SDS011;35050;51.316;5.994;2023-09-18T04:03:18;5.50;;;3.83;;
49223;SDS011;35050;51.316;5.994;2023-09-18T04:05:44;9.00;;;3.03;;
49223;SDS011;35050;51.316;5.994;2023-09-18T04:08:10;7.50;;;3.13;;
49223;SDS011;35050;51.316;5.994;2023-09-18T04:10:36;6.60;;;3.10;;
49223;SDS011;35050;51.316;5.994;2023-09-18T04:13:02;5.47;;;3.35;;
49223;SDS011;35050;51.316;5.994;2023-09-18T04:15:29;6.65;;;3.20;;
49223;SDS011;35050;51.316;5.994;2023-09-18T04:17:57;5.60;;;3.15;;
49223;SDS011;35050;51.316;5.994;2023-09-18T04:20:23;3.65;;;2.72;;
49223;SDS011;35050;51.316;5.994;2023-09-18T04:22:59;10.38;;;3.72;;
49223;SDS011;35050;51.316;5.994;2023-09-18T04:25:51;6.75;;;3.50;;
49223;SDS011;35050;51.316;5.994;2023-09-18T04:28:18;8.13;;;3.25;;
49223;SDS011;35050;51.316;5.994;2023-09-18T04:30:45;6.90;;;3.42;;
49223;SDS011;35050;51.316;5.994;2023-09-18T04:33:12;13.70;;;3.28;;
49223;SDS011;35050;51.316;5.994;2023-09-18T04:35:38;6.18;;;3.08;;
49223;SDS011;35050;51.316;5.994;2023-09-18T04:38:06;6.30;;;3.10;;
49223;SDS011;35050;51.316;5.994;2023-09-18T04:40:33;5.57;;;3.05;;
49223;SDS011;35050;51.316;5.994;2023-09-18T04:42:59;9.75;;;4.15;;
49223;SDS011;35050;51.316;5.994;2023-09-18T04:45:25;9.13;;;3.35;;
49223;SDS011;35050;51.316;5.994;2023-09-18T04:47:51;5.40;;;3.00;;
49223;SDS011;35050;51.316;5.994;2023-09-18T04:50:21;7.68;;;3.00;;
49223;SDS011;35050;51.316;5.994;2023-09-18T04:52:47;4.63;;;3.17;;
49223;SDS011;35050;51.316;5.994;2023-09-18T04:55:15;5.22;;;2.85;;
49223;SDS011;35050;51.316;5.994;2023-09-18T04:57:41;6.43;;;2.95;;
49223;SDS011;35050;51.316;5.994;2023-09-18T05:00:07;6.20;;;3.15;;
49223;SDS011;35050;51.316;5.994;2023-09-18T05:02:34;5.40;;;3.10;;
49223;SDS011;35050;51.316;5.994;2023-09-18T05:05:00;4.70;;;2.72;;
49223;SDS011;35050;51.316;5.994;2023-09-18T05:07:26;7.45;;;2.97;;
49223;SDS011;35050;51.316;5.994;2023-09-18T05:09:51;9.48;;;3.70;;
49223;SDS011;35050;51.316;5.994;2023-09-18T05:12:17;6.20;;;2.97;;
49223;SDS011;35050;51.316;5.994;2023-09-18T05:14:43;9.88;;;3.13;;
49223;SDS011;35050;51.316;5.994;2023-09-18T05:17:10;11.50;;;3.13;;
49223;SDS011;35050;51.316;5.994;2023-09-18T05:19:39;10.75;;;4.95;;
49223;SDS011;35050;51.316;5.994;2023-09-18T05:22:05;9.48;;;3.13;;
49223;SDS011;35050;51.316;5.994;2023-09-18T05:24:31;8.05;;;2.90;;
49223;SDS011;35050;51.316;5.994;2023-09-18T05:26:57;5.45;;;3.17;;
49223;SDS011;35050;51.316;5.994;2023-09-18T05:29:23;4.63;;;2.70;;
49223;SDS011;35050;51.316;5.994;2023-09-18T05:31:49;5.00;;;2.50;;
49223;SDS011;35050;51.316;5.994;2023-09-18T05:34:14;6.50;;;2.50;;
49223;SDS011;35050;51.316;5.994;2023-09-18T05:36:40;5.22;;;2.45;;
49223;SDS011;35050;51.316;5.994;2023-09-18T05:39:07;5.32;;;2.28;;
49223;SDS011;35050;51.316;5.994;2023-09-18T05:41:38;4.30;;;2.28;;
49223;SDS011;35050;51.316;5.994;2023-09-18T05:44:04;3.17;;;2.00;;
49223;SDS011;35050;51.316;5.994;2023-09-18T05:46:32;5.60;;;2.53;;
49223;SDS011;35050;51.316;5.994;2023-09-18T05:49:01;5.40;;;2.50;;
49223;SDS011;35050;51.316;5.994;2023-09-18T05:51:27;4.38;;;2.03;;
49223;SDS011;35050;51.316;5.994;2023-09-18T05:53:53;4.55;;;2.00;;
49223;SDS011;35050;51.316;5.994;2023-09-18T05:56:19;3.55;;;1.90;;
49223;SDS011;35050;51.316;5.994;2023-09-18T05:58:44;4.32;;;2.00;;
49223;SDS011;35050;51.316;5.994;2023-09-18T06:01:10;3.85;;;2.20;;
49223;SDS011;35050;51.316;5.994;2023-09-18T06:03:35;3.20;;;2.13;;
49223;SDS011;35050;51.316;5.994;2023-09-18T06:06:07;5.13;;;2.35;;
49223;SDS011;35050;51.316;5.994;2023-09-18T06:08:33;3.03;;;1.77;;
49223;SDS011;35050;51.316;5.994;2023-09-18T06:10:59;4.85;;;2.00;;
49223;SDS011;35050;51.316;5.994;2023-09-18T06:13:25;4.32;;;1.98;;
49223;SDS011;35050;51.316;5.994;2023-09-18T06:15:51;3.65;;;1.90;;
49223;SDS011;35050;51.316;5.994;2023-09-18T06:18:19;4.05;;;1.90;;
49223;SDS011;35050;51.316;5.994;2023-09-18T06:20:48;3.72;;;1.83;;
49223;SDS011;35050;51.316;5.994;2023-09-18T06:23:14;4.28;;;1.60;;
49223;SDS011;35050;51.316;5.994;2023-09-18T06:25:40;4.07;;;1.90;;
49223;SDS011;35050;51.316;5.994;2023-09-18T06:28:06;2.92;;;1.42;;
49223;SDS011;35050;51.316;5.994;2023-09-18T06:30:32;3.05;;;1.65;;
49223;SDS011;35050;51.316;5.994;2023-09-18T06:32:59;2.67;;;1.45;;
49223;SDS011;35050;51.316;5.994;2023-09-18T06:35:26;3.88;;;1.58;;
49223;SDS011;35050;51.316;5.994;2023-09-18T06:37:52;4.05;;;1.55;;
49223;SDS011;35050;51.316;5.994;2023-09-18T06:40:19;3.00;;;1.70;;
49223;SDS011;35050;51.316;5.994;2023-09-18T06:42:45;4.63;;;1.65;;
49223;SDS011;35050;51.316;5.994;2023-09-18T06:45:11;2.70;;;1.40;;
49223;SDS011;35050;51.316;5.994;2023-09-18T06:47:38;3.50;;;1.67;;
49223;SDS011;35050;51.316;5.994;2023-09-18T06:50:05;2.88;;;1.23;;
49223;SDS011;35050;51.316;5.994;2023-09-18T06:52:31;3.05;;;1.50;;
49223;SDS011;35050;51.316;5.994;2023-09-18T06:54:57;3.63;;;1.30;;
49223;SDS011;35050;51.316;5.994;2023-09-18T06:57:23;3.25;;;1.50;;
49223;SDS011;35050;51.316;5.994;2023-09-18T06:59:49;4.25;;;1.50;;
49223;SDS011;35050;51.316;5.994;2023-09-18T07:02:15;7.32;;;1.58;;
49223;SDS011;35050;51.316;5.994;2023-09-18T07:04:41;2.08;;;1.25;;
49223;SDS011;35050;51.316;5.994;2023-09-18T07:07:11;2.58;;;1.50;;
49223;SDS011;35050;51.316;5.994;2023-09-18T07:09:38;4.88;;;1.25;;
49223;SDS011;35050;51.316;5.994;2023-09-18T07:12:03;4.43;;;1.33;;
49223;SDS011;35050;51.316;5.994;2023-09-18T07:14:29;1.90;;;1.10;;
49223;SDS011;35050;51.316;5.994;2023-09-18T07:16:56;2.28;;;1.20;;
49223;SDS011;35050;51.316;5.994;2023-09-18T07:19:21;4.25;;;1.42;;
49223;SDS011;35050;51.316;5.994;2023-09-18T07:21:47;4.93;;;1.15;;
49223;SDS011;35050;51.316;5.994;2023-09-18T07:24:13;2.58;;;1.08;;
49223;SDS011;35050;51.316;5.994;2023-09-18T07:26:43;5.45;;;1.38;;
49223;SDS011;35050;51.316;5.994;2023-09-18T07:29:10;1.77;;;1.15;;
49223;SDS011;35050;51.316;5.994;2023-09-18T07:31:35;2.92;;;1.38;;
49223;SDS011;35050;51.316;5.994;2023-09-18T07:34:01;3.05;;;1.50;;
49223;SDS011;35050;51.316;5.994;2023-09-18T07:36:29;1.30;;;1.08;;
49223;SDS011;35050;51.316;5.994;2023-09-18T07:38:55;2.95;;;1.20;;
49223;SDS011;35050;51.316;5.994;2023-09-18T07:41:21;2.63;;;1.13;;
49223;SDS011;35050;51.316;5.994;2023-09-18T07:43:47;1.58;;;1.15;;
49223;SDS011;35050;51.316;5.994;2023-09-18T07:46:13;3.30;;;1.17;;
49223;SDS011;35050;51.316;5.994;2023-09-18T07:48:38;2.60;;;1.13;;
49223;SDS011;35050;51.316;5.994;2023-09-18T07:51:04;2.50;;;1.00;;
49223;SDS011;35050;51.316;5.994;2023-09-18T07:53:30;3.55;;;1.40;;
49223;SDS011;35050;51.316;5.994;2023-09-18T07:55:57;3.70;;;1.50;;
49223;SDS011;35050;51.316;5.994;2023-09-18T07:58:24;4.75;;;1.38;;
49223;SDS011;35050;51.316;5.994;2023-09-18T08:00:52;1.90;;;1.23;;
49223;SDS011;35050;51.316;5.994;2023-09-18T08:03:25;1.67;;;1.02;;
49223;SDS011;35050;51.316;5.994;2023-09-18T08:05:54;3.92;;;1.30;;
49223;SDS011;35050;51.316;5.994;2023-09-18T08:08:20;3.67;;;1.38;;
49223;SDS011;35050;51.316;5.994;2023-09-18T08:10:50;6.82;;;1.58;;
49223;SDS011;35050;51.316;5.994;2023-09-18T08:13:16;2.15;;;1.15;;
49223;SDS011;35050;51.316;5.994;2023-09-18T08:15:42;5.63;;;1.48;;
49223;SDS011;35050;51.316;5.994;2023-09-18T08:18:09;2.33;;;1.27;;
49223;SDS011;35050;51.316;5.994;2023-09-18T08:20:35;2.80;;;1.30;;
49223;SDS011;35050;51.316;5.994;2023-09-18T08:23:05;1.50;;;1.15;;
49223;SDS011;35050;51.316;5.994;2023-09-18T08:25:31;4.07;;;1.30;;
49223;SDS011;35050;51.316;5.994;2023-09-18T08:27:57;3.17;;;1.13;;
49223;SDS011;35050;51.316;5.994;2023-09-18T08:30:22;1.83;;;1.10;;
49223;SDS011;35050;51.316;5.994;2023-09-18T08:32:48;2.65;;;1.30;;
49223;SDS011;35050;51.316;5.994;2023-09-18T08:35:14;1.05;;;1.00;;
49223;SDS011;35050;51.316;5.994;2023-09-18T08:37:40;2.22;;;1.20;;
49223;SDS011;35050;51.316;5.994;2023-09-18T08:40:07;4.47;;;1.10;;
49223;SDS011;35050;51.316;5.994;2023-09-18T08:42:39;3.45;;;1.25;;
49223;SDS011;35050;51.316;5.994;2023-09-18T08:45:09;5.57;;;1.50;;
49223;SDS011;35050;51.316;5.994;2023-09-18T08:47:36;2.97;;;1.20;;
49223;SDS011;35050;51.316;5.994;2023-09-18T08:50:08;1.35;;;0.93;;
49223;SDS011;35050;51.316;5.994;2023-09-18T08:52:35;5.13;;;1.13;;
49223;SDS011;35050;51.316;5.994;2023-09-18T08:55:02;2.90;;;1.10;;
49223;SDS011;35050;51.316;5.994;2023-09-18T08:57:29;2.33;;;1.10;;
49223;SDS011;35050;51.316;5.994;2023-09-18T08:59:55;3.97;;;1.02;;
49223;SDS011;35050;51.316;5.994;2023-09-18T09:02:23;2.92;;;1.30;;
49223;SDS011;35050;51.316;5.994;2023-09-18T09:04:49;3.13;;;1.30;;
49223;SDS011;35050;51.316;5.994;2023-09-18T09:07:15;1.90;;;1.33;;
49223;SDS011;35050;51.316;5.994;2023-09-18T09:09:41;2.08;;;1.13;;
49223;SDS011;35050;51.316;5.994;2023-09-18T09:12:07;2.35;;;1.27;;
49223;SDS011;35050;51.316;5.994;2023-09-18T09:14:33;2.50;;;1.20;;
49223;SDS011;35050;51.316;5.994;2023-09-18T09:16:59;4.35;;;1.52;;
49223;SDS011;35050;51.316;5.994;2023-09-18T09:19:31;3.88;;;1.30;;
49223;SDS011;35050;51.316;5.994;2023-09-18T09:22:01;2.10;;;1.27;;
49223;SDS011;35050;51.316;5.994;2023-09-18T09:27:06;3.83;;;1.27;;
49223;SDS011;35050;51.316;5.994;2023-09-18T09:29:33;3.88;;;1.40;;
49223;SDS011;35050;51.316;5.994;2023-09-18T09:32:12;3.90;;;1.17;;
49223;SDS011;35050;51.316;5.994;2023-09-18T09:34:42;3.13;;;1.50;;
49223;SDS011;35050;51.316;5.994;2023-09-18T09:37:09;7.85;;;1.63;;
49223;SDS011;35050;51.316;5.994;2023-09-18T09:39:57;3.40;;;1.63;;
49223;SDS011;35050;51.316;5.994;2023-09-18T09:42:21;2.45;;;1.40;;
49223;SDS011;35050;51.316;5.994;2023-09-18T09:45:00;4.50;;;1.52;;
49223;SDS011;35050;51.316;5.994;2023-09-18T09:47:32;2.17;;;1.20;;
49223;SDS011;35050;51.316;5.994;2023-09-18T09:49:58;2.47;;;1.25;;
49223;SDS011;35050;51.316;5.994;2023-09-18T09:52:35;2.33;;;1.00;;
49223;SDS011;35050;51.316;5.994;2023-09-18T09:55:17;2.15;;;1.10;;
49223;SDS011;35050;51.316;5.994;2023-09-18T09:57:58;2.75;;;1.38;;
49223;SDS011;35050;51.316;5.994;2023-09-18T10:00:26;4.80;;;2.13;;
49223;SDS011;35050;51.316;5.994;2023-09-18T10:03:01;3.00;;;1.30;;
49223;SDS011;35050;51.316;5.994;2023-09-18T10:05:32;1.98;;;1.20;;
49223;SDS011;35050;51.316;5.994;2023-09-18T10:08:07;1.75;;;1.40;;
49223;SDS011;35050;51.316;5.994;2023-09-18T10:11:01;2.90;;;1.50;;
49223;SDS011;35050;51.316;5.994;2023-09-18T10:15:56;3.20;;;1.27;;
49223;SDS011;35050;51.316;5.994;2023-09-18T10:20:55;2.10;;;1.40;;
49223;SDS011;35050;51.316;5.994;2023-09-18T10:23:34;2.25;;;1.17;;
49223;SDS011;35050;51.316;5.994;2023-09-18T10:26:09;1.98;;;1.10;;
49223;SDS011;35050;51.316;5.994;2023-09-18T10:28:41;4.28;;;1.40;;
49223;SDS011;35050;51.316;5.994;2023-09-18T10:31:09;2.40;;;1.30;;
49223;SDS011;35050;51.316;5.994;2023-09-18T10:33:37;2.92;;;1.35;;
49223;SDS011;35050;51.316;5.994;2023-09-18T10:36:03;2.40;;;1.20;;
49223;SDS011;35050;51.316;5.994;2023-09-18T10:38:30;3.05;;;1.25;;
49223;SDS011;35050;51.316;5.994;2023-09-18T10:40:57;3.00;;;1.40;;
49223;SDS011;35050;51.316;5.994;2023-09-18T10:43:24;3.55;;;1.35;;
49223;SDS011;35050;51.316;5.994;2023-09-18T10:45:49;2.83;;;1.50;;
49223;SDS011;35050;51.316;5.994;2023-09-18T10:48:17;2.20;;;1.50;;
49223;SDS011;35050;51.316;5.994;2023-09-18T10:50:44;2.60;;;1.40;;
49223;SDS011;35050;51.316;5.994;2023-09-18T10:53:11;3.47;;;1.40;;
49223;SDS011;35050;51.316;5.994;2023-09-18T10:55:37;2.60;;;1.35;;
49223;SDS011;35050;51.316;5.994;2023-09-18T10:58:03;3.83;;;1.70;;
49223;SDS011;35050;51.316;5.994;2023-09-18T11:00:29;2.13;;;1.60;;
49223;SDS011;35050;51.316;5.994;2023-09-18T11:06:04;2.50;;;1.67;;
49223;SDS011;35050;51.316;5.994;2023-09-18T11:08:43;2.85;;;1.63;;
49223;SDS011;35050;51.316;5.994;2023-09-18T11:11:11;2.25;;;1.48;;
49223;SDS011;35050;51.316;5.994;2023-09-18T11:13:42;4.35;;;1.70;;
49223;SDS011;35050;51.316;5.994;2023-09-18T11:18:45;3.65;;;1.52;;
49223;SDS011;35050;51.316;5.994;2023-09-18T11:21:14;6.32;;;1.77;;
49223;SDS011;35050;51.316;5.994;2023-09-18T11:23:42;2.47;;;1.30;;
49223;SDS011;35050;51.316;5.994;2023-09-18T11:26:08;2.78;;;1.50;;
49223;SDS011;35050;51.316;5.994;2023-09-18T11:28:35;2.97;;;1.50;;
49223;SDS011;35050;51.316;5.994;2023-09-18T11:31:07;1.83;;;1.15;;
49223;SDS011;35050;51.316;5.994;2023-09-18T11:36:02;3.38;;;1.73;;
49223;SDS011;35050;51.316;5.994;2023-09-18T11:38:36;2.78;;;1.30;;
49223;SDS011;35050;51.316;5.994;2023-09-18T11:41:28;1.42;;;1.30;;
49223;SDS011;35050;51.316;5.994;2023-09-18T11:46:47;2.22;;;1.20;;
49223;SDS011;35050;51.316;5.994;2023-09-18T11:49:21;2.67;;;1.10;;
49223;SDS011;35050;51.316;5.994;2023-09-18T11:51:47;2.67;;;1.10;;
49223;SDS011;35050;51.316;5.994;2023-09-18T11:54:14;2.47;;;1.35;;
49223;SDS011;35050;51.316;5.994;2023-09-18T11:56:41;2.10;;;1.25;;
49223;SDS011;35050;51.316;5.994;2023-09-18T11:59:07;2.35;;;1.17;;
49223;SDS011;35050;51.316;5.994;2023-09-18T12:01:34;3.42;;;1.42;;
49223;SDS011;35050;51.316;5.994;2023-09-18T12:04:05;2.30;;;1.30;;
49223;SDS011;35050;51.316;5.994;2023-09-18T12:06:38;1.40;;;1.10;;
49223;SDS011;35050;51.316;5.994;2023-09-18T12:09:05;1.30;;;1.05;;
49223;SDS011;35050;51.316;5.994;2023-09-18T12:11:32;1.85;;;1.40;;
49223;SDS011;35050;51.316;5.994;2023-09-18T12:14:00;2.90;;;1.73;;
49223;SDS011;35050;51.316;5.994;2023-09-18T12:16:29;2.78;;;1.40;;
49223;SDS011;35050;51.316;5.994;2023-09-18T12:18:55;4.13;;;1.42;;
49223;SDS011;35050;51.316;5.994;2023-09-18T12:21:22;2.13;;;1.20;;
49223;SDS011;35050;51.316;5.994;2023-09-18T12:23:48;2.70;;;1.30;;
49223;SDS011;35050;51.316;5.994;2023-09-18T12:26:15;5.50;;;1.58;;
49223;SDS011;35050;51.316;5.994;2023-09-18T12:28:43;2.25;;;1.48;;
49223;SDS011;35050;51.316;5.994;2023-09-18T12:31:13;2.58;;;1.50;;
49223;SDS011;35050;51.316;5.994;2023-09-18T12:33:39;4.10;;;1.30;;
49223;SDS011;35050;51.316;5.994;2023-09-18T12:36:07;4.97;;;1.17;;
49223;SDS011;35050;51.316;5.994;2023-09-18T12:38:34;2.22;;;1.30;;
49223;SDS011;35050;51.316;5.994;2023-09-18T12:41:02;3.10;;;1.30;;
49223;SDS011;35050;51.316;5.994;2023-09-18T12:43:33;2.63;;;1.42;;
49223;SDS011;35050;51.316;5.994;2023-09-18T12:46:04;1.45;;;1.30;;
49223;SDS011;35050;51.316;5.994;2023-09-18T12:48:30;3.90;;;1.58;;
49223;SDS011;35050;51.316;5.994;2023-09-18T12:51:02;1.77;;;1.30;;
49223;SDS011;35050;51.316;5.994;2023-09-18T12:53:28;2.88;;;1.40;;
49223;SDS011;35050;51.316;5.994;2023-09-18T12:55:54;1.88;;;1.20;;
49223;SDS011;35050;51.316;5.994;2023-09-18T12:58:41;2.45;;;1.45;;
49223;SDS011;35050;51.316;5.994;2023-09-18T13:01:08;2.83;;;1.08;;
49223;SDS011;35050;51.316;5.994;2023-09-18T13:03:43;2.75;;;1.50;;
49223;SDS011;35050;51.316;5.994;2023-09-18T13:06:10;1.58;;;0.90;;
49223;SDS011;35050;51.316;5.994;2023-09-18T13:08:41;2.70;;;1.38;;
49223;SDS011;35050;51.316;5.994;2023-09-18T13:11:06;1.95;;;1.20;;
49223;SDS011;35050;51.316;5.994;2023-09-18T13:13:32;2.03;;;1.23;;
49223;SDS011;35050;51.316;5.994;2023-09-18T13:15:58;1.48;;;1.10;;
49223;SDS011;35050;51.316;5.994;2023-09-18T13:18:25;3.67;;;1.65;;
49223;SDS011;35050;51.316;5.994;2023-09-18T13:20:52;3.05;;;1.42;;
49223;SDS011;35050;51.316;5.994;2023-09-18T13:23:19;3.35;;;1.20;;
49223;SDS011;35050;51.316;5.994;2023-09-18T13:25:45;4.05;;;1.67;;
49223;SDS011;35050;51.316;5.994;2023-09-18T13:28:12;1.38;;;1.10;;
49223;SDS011;35050;51.316;5.994;2023-09-18T13:30:39;5.65;;;0.90;;
49223;SDS011;35050;51.316;5.994;2023-09-18T13:33:10;5.85;;;1.40;;
49223;SDS011;35050;51.316;5.994;2023-09-18T13:35:41;3.00;;;1.23;;
49223;SDS011;35050;51.316;5.994;2023-09-18T13:38:09;1.75;;;1.23;;
49223;SDS011;35050;51.316;5.994;2023-09-18T13:40:41;3.30;;;1.30;;
49223;SDS011;35050;51.316;5.994;2023-09-18T13:43:10;1.02;;;0.93;;
49223;SDS011;35050;51.316;5.994;2023-09-18T13:45:36;1.90;;;1.00;;
49223;SDS011;35050;51.316;5.994;2023-09-18T13:48:03;3.38;;;1.25;;
49223;SDS011;35050;51.316;5.994;2023-09-18T13:50:29;1.63;;;1.10;;
49223;SDS011;35050;51.316;5.994;2023-09-18T13:52:55;2.50;;;1.00;;
49223;SDS011;35050;51.316;5.994;2023-09-18T13:55:21;2.08;;;1.30;;
49223;SDS011;35050;51.316;5.994;2023-09-18T13:57:47;1.90;;;1.13;;
49223;SDS011;35050;51.316;5.994;2023-09-18T14:00:13;4.07;;;1.40;;
49223;SDS011;35050;51.316;5.994;2023-09-18T14:02:39;2.17;;;1.02;;
49223;SDS011;35050;51.316;5.994;2023-09-18T14:05:06;1.25;;;1.02;;
49223;SDS011;35050;51.316;5.994;2023-09-18T14:07:32;1.73;;;1.00;;
49223;SDS011;35050;51.316;5.994;2023-09-18T14:09:58;4.05;;;1.38;;
49223;SDS011;35050;51.316;5.994;2023-09-18T14:12:28;1.27;;;0.90;;
49223;SDS011;35050;51.316;5.994;2023-09-18T14:14:55;1.23;;;1.13;;
49223;SDS011;35050;51.316;5.994;2023-09-18T14:17:21;1.30;;;1.20;;
49223;SDS011;35050;51.316;5.994;2023-09-18T14:19:47;1.05;;;0.82;;
49223;SDS011;35050;51.316;5.994;2023-09-18T14:22:13;4.00;;;1.23;;
49223;SDS011;35050;51.316;5.994;2023-09-18T14:24:39;2.05;;;1.13;;
49223;SDS011;35050;51.316;5.994;2023-09-18T14:27:05;1.52;;;1.00;;
49223;SDS011;35050;51.316;5.994;2023-09-18T14:29:31;2.08;;;1.00;;
49223;SDS011;35050;51.316;5.994;2023-09-18T14:31:58;2.03;;;1.20;;
49223;SDS011;35050;51.316;5.994;2023-09-18T14:34:24;2.42;;;1.38;;
49223;SDS011;35050;51.316;5.994;2023-09-18T14:36:50;1.92;;;1.15;;
49223;SDS011;35050;51.316;5.994;2023-09-18T14:39:16;1.55;;;0.90;;
49223;SDS011;35050;51.316;5.994;2023-09-18T14:41:42;2.63;;;1.00;;
49223;SDS011;35050;51.316;5.994;2023-09-18T14:44:08;2.35;;;1.10;;
49223;SDS011;35050;51.316;5.994;2023-09-18T14:46:35;2.45;;;0.90;;
49223;SDS011;35050;51.316;5.994;2023-09-18T14:49:05;1.05;;;0.98;;
49223;SDS011;35050;51.316;5.994;2023-09-18T14:51:32;0.82;;;0.82;;
49223;SDS011;35050;51.316;5.994;2023-09-18T14:53:59;1.73;;;1.10;;
49223;SDS011;35050;51.316;5.994;2023-09-18T14:56:25;1.52;;;1.10;;
49223;SDS011;35050;51.316;5.994;2023-09-18T14:58:50;2.08;;;1.17;;
49223;SDS011;35050;51.316;5.994;2023-09-18T15:01:20;1.70;;;1.10;;
49223;SDS011;35050;51.316;5.994;2023-09-18T15:03:47;3.97;;;1.02;;
49223;SDS011;35050;51.316;5.994;2023-09-18T15:06:15;2.15;;;1.08;;
49223;SDS011;35050;51.316;5.994;2023-09-18T15:08:42;3.13;;;1.70;;
49223;SDS011;35050;51.316;5.994;2023-09-18T15:11:08;1.60;;;1.10;;
49223;SDS011;35050;51.316;5.994;2023-09-18T15:13:34;0.85;;;0.85;;